Terminal Aerodrome Forecast
Issued by NWS Green Bay, WI

Home | Current Version | Previous Version | Text Only | Print | Product List | Glossary On
Versions: 1 2 3 4 5 6 7 8 9 10 11 12 13 14 15 16 17 18 19 20 21 22 23 24 25 26 27 28 29 30 31 32 33 34 35 36 37 38 39 40 41 42 43 44 45 46 47 48 49 50
396
FTUS43 KGRB 281731
TAFGRB
TAF
KGRB 281731Z 2818/2918 20014G24KT P6SM SCT025 BKN045
     FM290100 19009KT P6SM BKN025
      TEMPO 2901/2905 4SM TSRA BKN020CB
     FM290500 20005KT 6SM BR BKN035 BKN070
     FM290800 20004KT 4SM BR BKN007
     FM291400 22010KT 6SM BR SCT007 OVC020=

USA.gov is the U.S. government's official web portal to all federal, state and local government web resources and services.